sensor_id;sensor_type;location;lat;lon;timestamp;P1;durP1;ratioP1;P2;durP2;ratioP2
64375;SDS011;50700;55.416;12.952;2023-02-10T00:01:56;12.88;;;3.13;;
64375;SDS011;50700;55.416;12.952;2023-02-10T00:04:22;12.82;;;3.03;;
64375;SDS011;50700;55.416;12.952;2023-02-10T00:06:48;17.73;;;3.17;;
64375;SDS011;50700;55.416;12.952;2023-02-10T00:09:15;20.65;;;3.40;;
64375;SDS011;50700;55.416;12.952;2023-02-10T00:11:41;14.88;;;2.65;;
64375;SDS011;50700;55.416;12.952;2023-02-10T00:14:25;9.93;;;2.47;;
64375;SDS011;50700;55.416;12.952;2023-02-10T00:16:52;15.57;;;2.90;;
64375;SDS011;50700;55.416;12.952;2023-02-10T00:19:19;10.27;;;2.15;;
64375;SDS011;50700;55.416;12.952;2023-02-10T00:21:46;13.35;;;3.60;;
64375;SDS011;50700;55.416;12.952;2023-02-10T00:24:12;9.65;;;2.38;;
64375;SDS011;50700;55.416;12.952;2023-02-10T00:26:38;12.75;;;3.88;;
64375;SDS011;50700;55.416;12.952;2023-02-10T00:29:04;24.02;;;3.47;;
64375;SDS011;50700;55.416;12.952;2023-02-10T00:31:31;16.15;;;3.00;;
64375;SDS011;50700;55.416;12.952;2023-02-10T00:33:57;14.20;;;3.25;;
64375;SDS011;50700;55.416;12.952;2023-02-10T00:36:23;10.50;;;2.30;;
64375;SDS011;50700;55.416;12.952;2023-02-10T00:38:50;17.15;;;2.67;;
64375;SDS011;50700;55.416;12.952;2023-02-10T00:41:17;15.65;;;2.60;;
64375;SDS011;50700;55.416;12.952;2023-02-10T00:43:44;14.43;;;2.53;;
64375;SDS011;50700;55.416;12.952;2023-02-10T00:46:14;18.42;;;3.10;;
64375;SDS011;50700;55.416;12.952;2023-02-10T00:48:40;13.38;;;2.03;;
64375;SDS011;50700;55.416;12.952;2023-02-10T00:51:06;11.27;;;2.20;;
64375;SDS011;50700;55.416;12.952;2023-02-10T00:53:33;8.98;;;2.05;;
64375;SDS011;50700;55.416;12.952;2023-02-10T00:56:00;8.43;;;1.60;;
64375;SDS011;50700;55.416;12.952;2023-02-10T00:58:26;20.77;;;4.85;;
64375;SDS011;50700;55.416;12.952;2023-02-10T01:00:54;10.50;;;2.65;;
64375;SDS011;50700;55.416;12.952;2023-02-10T01:03:21;16.52;;;2.85;;
64375;SDS011;50700;55.416;12.952;2023-02-10T01:05:47;12.27;;;3.05;;
64375;SDS011;50700;55.416;12.952;2023-02-10T01:08:14;15.75;;;2.88;;
64375;SDS011;50700;55.416;12.952;2023-02-10T01:10:40;11.98;;;3.03;;
64375;SDS011;50700;55.416;12.952;2023-02-10T01:13:10;20.40;;;4.10;;
64375;SDS011;50700;55.416;12.952;2023-02-10T01:15:44;23.30;;;3.00;;
64375;SDS011;50700;55.416;12.952;2023-02-10T01:18:11;22.77;;;2.80;;
64375;SDS011;50700;55.416;12.952;2023-02-10T01:20:38;26.60;;;3.10;;
64375;SDS011;50700;55.416;12.952;2023-02-10T01:23:05;8.13;;;2.10;;
64375;SDS011;50700;55.416;12.952;2023-02-10T01:25:32;15.27;;;2.85;;
64375;SDS011;50700;55.416;12.952;2023-02-10T01:27:59;14.95;;;3.10;;
64375;SDS011;50700;55.416;12.952;2023-02-10T01:30:26;19.92;;;2.75;;
64375;SDS011;50700;55.416;12.952;2023-02-10T01:32:52;15.63;;;2.80;;
64375;SDS011;50700;55.416;12.952;2023-02-10T01:35:19;25.73;;;3.63;;
64375;SDS011;50700;55.416;12.952;2023-02-10T01:37:45;9.40;;;2.53;;
64375;SDS011;50700;55.416;12.952;2023-02-10T01:40:11;9.55;;;2.53;;
64375;SDS011;50700;55.416;12.952;2023-02-10T01:42:37;10.00;;;2.08;;
64375;SDS011;50700;55.416;12.952;2023-02-10T01:47:39;17.30;;;2.30;;
64375;SDS011;50700;55.416;12.952;2023-02-10T01:50:05;11.75;;;2.63;;
64375;SDS011;50700;55.416;12.952;2023-02-10T01:52:32;10.35;;;2.15;;
64375;SDS011;50700;55.416;12.952;2023-02-10T01:55:05;22.90;;;2.95;;
64375;SDS011;50700;55.416;12.952;2023-02-10T01:57:32;10.55;;;2.22;;
64375;SDS011;50700;55.416;12.952;2023-02-10T02:00:00;16.58;;;2.92;;
64375;SDS011;50700;55.416;12.952;2023-02-10T02:02:27;19.88;;;3.47;;
64375;SDS011;50700;55.416;12.952;2023-02-10T02:04:58;17.27;;;2.80;;
64375;SDS011;50700;55.416;12.952;2023-02-10T02:07:25;19.70;;;3.53;;
64375;SDS011;50700;55.416;12.952;2023-02-10T02:09:53;24.48;;;3.25;;
64375;SDS011;50700;55.416;12.952;2023-02-10T02:22:56;17.30;;;2.40;;
64375;SDS011;50700;55.416;12.952;2023-02-10T02:28:15;12.02;;;2.17;;
64375;SDS011;50700;55.416;12.952;2023-02-10T02:33:27;8.98;;;2.17;;
64375;SDS011;50700;55.416;12.952;2023-02-10T02:36:01;14.85;;;3.75;;
64375;SDS011;50700;55.416;12.952;2023-02-10T02:38:29;15.18;;;3.08;;
64375;SDS011;50700;55.416;12.952;2023-02-10T02:40:55;25.33;;;2.60;;
64375;SDS011;50700;55.416;12.952;2023-02-10T02:43:22;16.40;;;3.17;;
64375;SDS011;50700;55.416;12.952;2023-02-10T02:48:19;14.82;;;2.35;;
64375;SDS011;50700;55.416;12.952;2023-02-10T02:50:53;15.90;;;2.63;;
64375;SDS011;50700;55.416;12.952;2023-02-10T02:58:32;18.95;;;2.70;;
64375;SDS011;50700;55.416;12.952;2023-02-10T03:01:00;11.25;;;2.58;;
64375;SDS011;50700;55.416;12.952;2023-02-10T03:03:31;9.38;;;2.40;;
64375;SDS011;50700;55.416;12.952;2023-02-10T03:05:59;22.38;;;3.25;;
64375;SDS011;50700;55.416;12.952;2023-02-10T03:08:25;14.75;;;2.88;;
64375;SDS011;50700;55.416;12.952;2023-02-10T03:10:51;22.20;;;3.85;;
64375;SDS011;50700;55.416;12.952;2023-02-10T03:13:18;17.25;;;2.58;;
64375;SDS011;50700;55.416;12.952;2023-02-10T03:15:44;11.00;;;2.08;;
64375;SDS011;50700;55.416;12.952;2023-02-10T03:18:10;9.18;;;1.80;;
64375;SDS011;50700;55.416;12.952;2023-02-10T03:20:36;16.13;;;3.42;;
64375;SDS011;50700;55.416;12.952;2023-02-10T03:23:02;16.02;;;2.20;;
64375;SDS011;50700;55.416;12.952;2023-02-10T03:25:28;11.25;;;2.60;;
64375;SDS011;50700;55.416;12.952;2023-02-10T03:27:54;12.35;;;2.78;;
64375;SDS011;50700;55.416;12.952;2023-02-10T03:30:21;12.23;;;2.85;;
64375;SDS011;50700;55.416;12.952;2023-02-10T03:32:47;17.80;;;3.53;;
64375;SDS011;50700;55.416;12.952;2023-02-10T03:35:14;12.38;;;1.73;;
64375;SDS011;50700;55.416;12.952;2023-02-10T03:37:40;13.00;;;2.72;;
64375;SDS011;50700;55.416;12.952;2023-02-10T03:40:06;11.73;;;1.90;;
64375;SDS011;50700;55.416;12.952;2023-02-10T03:42:33;20.35;;;2.58;;
64375;SDS011;50700;55.416;12.952;2023-02-10T03:44:59;14.63;;;2.10;;
64375;SDS011;50700;55.416;12.952;2023-02-10T03:47:25;15.15;;;2.22;;
64375;SDS011;50700;55.416;12.952;2023-02-10T03:49:51;19.77;;;3.38;;
64375;SDS011;50700;55.416;12.952;2023-02-10T03:52:17;8.98;;;2.35;;
64375;SDS011;50700;55.416;12.952;2023-02-10T03:54:44;13.15;;;2.42;;
64375;SDS011;50700;55.416;12.952;2023-02-10T03:57:10;21.27;;;3.67;;
64375;SDS011;50700;55.416;12.952;2023-02-10T03:59:37;20.90;;;2.65;;
64375;SDS011;50700;55.416;12.952;2023-02-10T04:02:03;18.85;;;3.05;;
64375;SDS011;50700;55.416;12.952;2023-02-10T04:04:29;23.50;;;3.08;;
64375;SDS011;50700;55.416;12.952;2023-02-10T04:06:55;14.60;;;2.08;;
64375;SDS011;50700;55.416;12.952;2023-02-10T04:09:23;16.20;;;2.10;;
64375;SDS011;50700;55.416;12.952;2023-02-10T04:11:49;14.15;;;1.85;;
64375;SDS011;50700;55.416;12.952;2023-02-10T04:14:15;23.58;;;2.60;;
64375;SDS011;50700;55.416;12.952;2023-02-10T04:16:41;8.68;;;2.00;;
64375;SDS011;50700;55.416;12.952;2023-02-10T04:19:08;12.32;;;2.10;;
64375;SDS011;50700;55.416;12.952;2023-02-10T04:21:34;20.08;;;3.50;;
64375;SDS011;50700;55.416;12.952;2023-02-10T04:24:00;17.27;;;2.38;;
64375;SDS011;50700;55.416;12.952;2023-02-10T04:26:26;13.38;;;2.85;;
64375;SDS011;50700;55.416;12.952;2023-02-10T04:28:53;20.23;;;2.47;;
64375;SDS011;50700;55.416;12.952;2023-02-10T04:31:19;15.80;;;1.98;;
64375;SDS011;50700;55.416;12.952;2023-02-10T04:33:45;14.75;;;2.38;;
64375;SDS011;50700;55.416;12.952;2023-02-10T04:36:11;10.80;;;2.15;;
64375;SDS011;50700;55.416;12.952;2023-02-10T04:38:37;13.43;;;2.35;;
64375;SDS011;50700;55.416;12.952;2023-02-10T04:41:03;8.23;;;2.08;;
64375;SDS011;50700;55.416;12.952;2023-02-10T04:43:31;6.70;;;2.30;;
64375;SDS011;50700;55.416;12.952;2023-02-10T04:45:57;8.25;;;1.95;;
64375;SDS011;50700;55.416;12.952;2023-02-10T04:48:23;11.98;;;2.28;;
64375;SDS011;50700;55.416;12.952;2023-02-10T04:50:49;21.88;;;2.65;;
64375;SDS011;50700;55.416;12.952;2023-02-10T04:53:17;12.80;;;2.10;;
64375;SDS011;50700;55.416;12.952;2023-02-10T04:55:43;10.02;;;2.00;;
64375;SDS011;50700;55.416;12.952;2023-02-10T04:58:09;15.65;;;2.85;;
64375;SDS011;50700;55.416;12.952;2023-02-10T05:00:35;9.93;;;3.00;;
64375;SDS011;50700;55.416;12.952;2023-02-10T05:03:01;13.82;;;2.13;;
64375;SDS011;50700;55.416;12.952;2023-02-10T05:05:28;15.50;;;2.90;;
64375;SDS011;50700;55.416;12.952;2023-02-10T05:07:54;7.07;;;1.60;;
64375;SDS011;50700;55.416;12.952;2023-02-10T05:10:20;16.70;;;2.47;;
64375;SDS011;50700;55.416;12.952;2023-02-10T05:12:47;13.73;;;2.22;;
64375;SDS011;50700;55.416;12.952;2023-02-10T05:15:13;12.50;;;2.08;;
64375;SDS011;50700;55.416;12.952;2023-02-10T05:17:40;16.30;;;2.45;;
64375;SDS011;50700;55.416;12.952;2023-02-10T05:20:06;11.43;;;2.15;;
64375;SDS011;50700;55.416;12.952;2023-02-10T05:22:39;14.45;;;2.13;;
64375;SDS011;50700;55.416;12.952;2023-02-10T05:25:05;8.55;;;2.08;;
64375;SDS011;50700;55.416;12.952;2023-02-10T05:27:32;19.00;;;2.75;;
64375;SDS011;50700;55.416;12.952;2023-02-10T05:29:58;13.10;;;2.10;;
64375;SDS011;50700;55.416;12.952;2023-02-10T05:32:24;13.85;;;2.22;;
64375;SDS011;50700;55.416;12.952;2023-02-10T05:34:50;8.27;;;2.13;;
64375;SDS011;50700;55.416;12.952;2023-02-10T05:37:17;12.80;;;2.20;;
64375;SDS011;50700;55.416;12.952;2023-02-10T05:39:43;12.60;;;2.28;;
64375;SDS011;50700;55.416;12.952;2023-02-10T05:42:09;12.38;;;2.22;;
64375;SDS011;50700;55.416;12.952;2023-02-10T05:44:35;10.65;;;2.25;;
64375;SDS011;50700;55.416;12.952;2023-02-10T05:47:02;19.20;;;2.25;;
64375;SDS011;50700;55.416;12.952;2023-02-10T05:49:28;9.82;;;2.15;;
64375;SDS011;50700;55.416;12.952;2023-02-10T05:51:54;15.02;;;1.88;;
64375;SDS011;50700;55.416;12.952;2023-02-10T05:54:20;7.53;;;1.52;;
64375;SDS011;50700;55.416;12.952;2023-02-10T05:56:47;9.73;;;1.73;;
64375;SDS011;50700;55.416;12.952;2023-02-10T05:59:15;9.75;;;2.28;;
64375;SDS011;50700;55.416;12.952;2023-02-10T06:01:41;14.93;;;2.28;;
64375;SDS011;50700;55.416;12.952;2023-02-10T06:04:08;11.27;;;2.15;;
64375;SDS011;50700;55.416;12.952;2023-02-10T06:06:34;14.85;;;2.33;;
64375;SDS011;50700;55.416;12.952;2023-02-10T06:09:00;13.38;;;2.72;;
64375;SDS011;50700;55.416;12.952;2023-02-10T06:11:26;11.52;;;2.88;;
64375;SDS011;50700;55.416;12.952;2023-02-10T06:13:53;13.45;;;1.70;;
64375;SDS011;50700;55.416;12.952;2023-02-10T06:16:19;10.90;;;2.22;;
64375;SDS011;50700;55.416;12.952;2023-02-10T06:18:45;15.98;;;2.15;;
64375;SDS011;50700;55.416;12.952;2023-02-10T06:21:13;12.75;;;1.88;;
64375;SDS011;50700;55.416;12.952;2023-02-10T06:23:40;11.00;;;1.80;;
64375;SDS011;50700;55.416;12.952;2023-02-10T06:26:06;9.30;;;1.70;;
64375;SDS011;50700;55.416;12.952;2023-02-10T06:28:32;8.05;;;1.80;;
64375;SDS011;50700;55.416;12.952;2023-02-10T06:30:59;8.52;;;1.63;;
64375;SDS011;50700;55.416;12.952;2023-02-10T06:33:25;7.30;;;1.70;;
64375;SDS011;50700;55.416;12.952;2023-02-10T06:35:51;6.55;;;1.63;;
64375;SDS011;50700;55.416;12.952;2023-02-10T06:38:17;14.35;;;1.90;;
64375;SDS011;50700;55.416;12.952;2023-02-10T06:40:43;8.43;;;1.75;;
64375;SDS011;50700;55.416;12.952;2023-02-10T06:43:10;13.93;;;1.83;;
64375;SDS011;50700;55.416;12.952;2023-02-10T06:45:36;8.32;;;1.80;;
64375;SDS011;50700;55.416;12.952;2023-02-10T06:48:03;13.63;;;2.40;;
64375;SDS011;50700;55.416;12.952;2023-02-10T06:50:29;12.18;;;2.13;;
64375;SDS011;50700;55.416;12.952;2023-02-10T06:52:55;12.30;;;1.98;;
64375;SDS011;50700;55.416;12.952;2023-02-10T06:55:21;5.22;;;1.65;;
64375;SDS011;50700;55.416;12.952;2023-02-10T06:57:48;6.47;;;2.25;;
64375;SDS011;50700;55.416;12.952;2023-02-10T07:00:14;15.30;;;2.78;;
64375;SDS011;50700;55.416;12.952;2023-02-10T07:02:40;7.72;;;1.50;;
64375;SDS011;50700;55.416;12.952;2023-02-10T07:05:07;9.85;;;1.65;;
64375;SDS011;50700;55.416;12.952;2023-02-10T07:07:34;9.15;;;1.70;;
64375;SDS011;50700;55.416;12.952;2023-02-10T07:10:00;8.43;;;1.30;;
64375;SDS011;50700;55.416;12.952;2023-02-10T07:12:26;13.82;;;3.10;;
64375;SDS011;50700;55.416;12.952;2023-02-10T07:14:52;17.58;;;2.58;;
64375;SDS011;50700;55.416;12.952;2023-02-10T07:17:19;9.98;;;2.03;;
64375;SDS011;50700;55.416;12.952;2023-02-10T07:19:45;8.02;;;1.73;;
64375;SDS011;50700;55.416;12.952;2023-02-10T07:22:12;8.20;;;1.85;;
64375;SDS011;50700;55.416;12.952;2023-02-10T07:24:38;11.68;;;1.67;;
64375;SDS011;50700;55.416;12.952;2023-02-10T07:27:04;7.68;;;1.30;;
64375;SDS011;50700;55.416;12.952;2023-02-10T07:29:30;6.60;;;1.80;;
64375;SDS011;50700;55.416;12.952;2023-02-10T07:31:56;13.80;;;2.53;;
64375;SDS011;50700;55.416;12.952;2023-02-10T07:34:26;7.03;;;2.30;;
64375;SDS011;50700;55.416;12.952;2023-02-10T07:36:53;14.73;;;2.03;;
64375;SDS011;50700;55.416;12.952;2023-02-10T07:39:20;11.23;;;1.98;;
64375;SDS011;50700;55.416;12.952;2023-02-10T07:41:46;4.97;;;1.60;;
64375;SDS011;50700;55.416;12.952;2023-02-10T07:44:12;18.02;;;2.67;;
64375;SDS011;50700;55.416;12.952;2023-02-10T07:46:38;10.63;;;1.90;;
64375;SDS011;50700;55.416;12.952;2023-02-10T07:49:04;4.60;;;1.67;;
64375;SDS011;50700;55.416;12.952;2023-02-10T07:51:31;4.38;;;1.50;;
64375;SDS011;50700;55.416;12.952;2023-02-10T07:53:57;6.15;;;1.30;;
64375;SDS011;50700;55.416;12.952;2023-02-10T07:56:23;12.05;;;1.92;;
64375;SDS011;50700;55.416;12.952;2023-02-10T07:58:49;12.15;;;2.03;;
64375;SDS011;50700;55.416;12.952;2023-02-10T08:01:15;16.10;;;2.05;;
64375;SDS011;50700;55.416;12.952;2023-02-10T08:03:42;11.02;;;2.05;;
64375;SDS011;50700;55.416;12.952;2023-02-10T08:06:08;4.00;;;1.25;;
64375;SDS011;50700;55.416;12.952;2023-02-10T08:08:34;10.90;;;1.80;;
64375;SDS011;50700;55.416;12.952;2023-02-10T08:11:09;9.10;;;2.00;;
64375;SDS011;50700;55.416;12.952;2023-02-10T08:13:35;5.25;;;1.50;;
64375;SDS011;50700;55.416;12.952;2023-02-10T08:16:05;7.47;;;1.50;;
64375;SDS011;50700;55.416;12.952;2023-02-10T08:18:37;4.47;;;1.55;;
64375;SDS011;50700;55.416;12.952;2023-02-10T08:21:03;12.07;;;1.65;;
64375;SDS011;50700;55.416;12.952;2023-02-10T08:23:30;13.50;;;2.25;;
64375;SDS011;50700;55.416;12.952;2023-02-10T08:25:56;6.78;;;1.20;;
64375;SDS011;50700;55.416;12.952;2023-02-10T08:28:22;18.35;;;2.83;;
64375;SDS011;50700;55.416;12.952;2023-02-10T08:30:49;10.25;;;1.90;;
64375;SDS011;50700;55.416;12.952;2023-02-10T08:33:15;10.52;;;2.28;;
64375;SDS011;50700;55.416;12.952;2023-02-10T08:35:41;10.32;;;2.08;;
64375;SDS011;50700;55.416;12.952;2023-02-10T08:38:07;8.63;;;1.92;;
64375;SDS011;50700;55.416;12.952;2023-02-10T08:40:36;10.63;;;2.03;;
64375;SDS011;50700;55.416;12.952;2023-02-10T08:43:02;20.83;;;2.65;;
64375;SDS011;50700;55.416;12.952;2023-02-10T08:45:29;5.15;;;1.65;;
64375;SDS011;50700;55.416;12.952;2023-02-10T08:47:55;15.25;;;2.38;;
64375;SDS011;50700;55.416;12.952;2023-02-10T08:50:21;6.82;;;2.42;;
64375;SDS011;50700;55.416;12.952;2023-02-10T08:52:47;6.35;;;1.75;;
64375;SDS011;50700;55.416;12.952;2023-02-10T08:55:13;8.93;;;2.03;;
64375;SDS011;50700;55.416;12.952;2023-02-10T08:57:40;5.75;;;2.58;;
64375;SDS011;50700;55.416;12.952;2023-02-10T09:00:06;8.45;;;2.13;;
64375;SDS011;50700;55.416;12.952;2023-02-10T09:02:32;18.02;;;2.38;;
64375;SDS011;50700;55.416;12.952;2023-02-10T09:04:59;10.60;;;1.77;;
64375;SDS011;50700;55.416;12.952;2023-02-10T09:07:25;7.43;;;1.58;;
64375;SDS011;50700;55.416;12.952;2023-02-10T09:09:51;15.32;;;2.55;;
64375;SDS011;50700;55.416;12.952;2023-02-10T09:12:17;14.32;;;2.53;;
64375;SDS011;50700;55.416;12.952;2023-02-10T09:14:44;11.82;;;3.30;;
64375;SDS011;50700;55.416;12.952;2023-02-10T09:17:10;11.50;;;2.67;;
64375;SDS011;50700;55.416;12.952;2023-02-10T09:19:37;9.35;;;2.03;;
64375;SDS011;50700;55.416;12.952;2023-02-10T09:22:06;14.93;;;2.60;;
64375;SDS011;50700;55.416;12.952;2023-02-10T09:24:32;6.32;;;1.42;;
64375;SDS011;50700;55.416;12.952;2023-02-10T09:26:59;12.63;;;2.53;;
64375;SDS011;50700;55.416;12.952;2023-02-10T09:29:25;13.00;;;2.85;;
64375;SDS011;50700;55.416;12.952;2023-02-10T09:31:52;14.55;;;2.30;;
64375;SDS011;50700;55.416;12.952;2023-02-10T09:34:18;10.95;;;2.13;;
64375;SDS011;50700;55.416;12.952;2023-02-10T09:36:44;9.25;;;2.28;;
64375;SDS011;50700;55.416;12.952;2023-02-10T09:39:10;9.52;;;2.40;;
64375;SDS011;50700;55.416;12.952;2023-02-10T09:44:08;7.88;;;2.20;;
64375;SDS011;50700;55.416;12.952;2023-02-10T09:54:34;10.70;;;2.72;;
64375;SDS011;50700;55.416;12.952;2023-02-10T09:57:05;8.43;;;2.30;;
64375;SDS011;50700;55.416;12.952;2023-02-10T09:59:34;8.48;;;2.65;;
64375;SDS011;50700;55.416;12.952;2023-02-10T10:02:04;13.00;;;2.40;;
64375;SDS011;50700;55.416;12.952;2023-02-10T10:04:37;15.82;;;2.92;;
64375;SDS011;50700;55.416;12.952;2023-02-10T10:07:10;11.48;;;2.38;;
64375;SDS011;50700;55.416;12.952;2023-02-10T10:09:46;9.32;;;3.13;;
64375;SDS011;50700;55.416;12.952;2023-02-10T10:12:17;13.10;;;2.42;;
64375;SDS011;50700;55.416;12.952;2023-02-10T10:14:44;17.05;;;3.70;;
64375;SDS011;50700;55.416;12.952;2023-02-10T10:22:35;12.10;;;2.92;;
64375;SDS011;50700;55.416;12.952;2023-02-10T10:25:20;10.93;;;2.65;;
64375;SDS011;50700;55.416;12.952;2023-02-10T10:30:17;17.83;;;3.17;;
64375;SDS011;50700;55.416;12.952;2023-02-10T10:32:56;12.65;;;3.08;;
64375;SDS011;50700;55.416;12.952;2023-02-10T10:35:26;16.23;;;2.83;;
64375;SDS011;50700;55.416;12.952;2023-02-10T10:37:54;15.77;;;2.90;;
64375;SDS011;50700;55.416;12.952;2023-02-10T10:40:24;11.90;;;2.85;;
64375;SDS011;50700;55.416;12.952;2023-02-10T10:42:55;13.07;;;2.65;;
64375;SDS011;50700;55.416;12.952;2023-02-10T10:45:39;12.77;;;3.15;;
64375;SDS011;50700;55.416;12.952;2023-02-10T10:48:08;11.65;;;2.67;;
64375;SDS011;50700;55.416;12.952;2023-02-10T10:50:35;14.60;;;2.72;;
64375;SDS011;50700;55.416;12.952;2023-02-10T10:53:03;14.23;;;3.60;;
64375;SDS011;50700;55.416;12.952;2023-02-10T10:55:38;14.95;;;2.65;;
64375;SDS011;50700;55.416;12.952;2023-02-10T11:00:54;14.00;;;2.25;;
64375;SDS011;50700;55.416;12.952;2023-02-10T11:03:21;18.70;;;2.97;;
64375;SDS011;50700;55.416;12.952;2023-02-10T11:08:38;7.95;;;2.38;;
64375;SDS011;50700;55.416;12.952;2023-02-10T11:11:09;13.93;;;3.00;;
64375;SDS011;50700;55.416;12.952;2023-02-10T11:13:37;9.95;;;2.40;;
64375;SDS011;50700;55.416;12.952;2023-02-10T11:16:09;10.75;;;3.08;;
64375;SDS011;50700;55.416;12.952;2023-02-10T11:18:36;13.35;;;3.03;;
64375;SDS011;50700;55.416;12.952;2023-02-10T11:21:04;19.20;;;3.92;;
64375;SDS011;50700;55.416;12.952;2023-02-10T11:23:31;18.95;;;2.70;;
64375;SDS011;50700;55.416;12.952;2023-02-10T11:26:15;10.23;;;2.83;;
64375;SDS011;50700;55.416;12.952;2023-02-10T11:28:43;16.30;;;4.18;;
64375;SDS011;50700;55.416;12.952;2023-02-10T11:33:58;6.78;;;2.35;;
64375;SDS011;50700;55.416;12.952;2023-02-10T11:36:43;19.42;;;3.30;;
64375;SDS011;50700;55.416;12.952;2023-02-10T11:39:18;13.73;;;2.80;;
64375;SDS011;50700;55.416;12.952;2023-02-10T11:41:46;9.73;;;2.30;;
64375;SDS011;50700;55.416;12.952;2023-02-10T11:44:30;10.20;;;2.50;;
64375;SDS011;50700;55.416;12.952;2023-02-10T11:49:23;18.38;;;2.83;;
64375;SDS011;50700;55.416;12.952;2023-02-10T11:51:53;14.55;;;3.83;;
64375;SDS011;50700;55.416;12.952;2023-02-10T11:54:20;10.23;;;2.30;;
64375;SDS011;50700;55.416;12.952;2023-02-10T12:07:37;15.63;;;2.40;;
64375;SDS011;50700;55.416;12.952;2023-02-10T12:10:20;7.13;;;2.40;;
64375;SDS011;50700;55.416;12.952;2023-02-10T12:13:03;11.60;;;2.13;;
64375;SDS011;50700;55.416;12.952;2023-02-10T12:21:11;8.80;;;2.85;;
64375;SDS011;50700;55.416;12.952;2023-02-10T12:32:19;16.40;;;2.20;;
64375;SDS011;50700;55.416;12.952;2023-02-10T12:42:35;10.93;;;1.92;;
64375;SDS011;50700;55.416;12.952;2023-02-10T12:45:17;16.23;;;3.80;;
64375;SDS011;50700;55.416;12.952;2023-02-10T12:53:10;12.38;;;2.40;;
64375;SDS011;50700;55.416;12.952;2023-02-10T12:58:07;11.13;;;1.90;;
64375;SDS011;50700;55.416;12.952;2023-02-10T13:00:37;12.47;;;2.23;;
64375;SDS011;50700;55.416;12.952;2023-02-10T13:08:10;14.82;;;2.35;;
64375;SDS011;50700;55.416;12.952;2023-02-10T13:10:39;15.80;;;2.35;;
64375;SDS011;50700;55.416;12.952;2023-02-10T13:13:16;12.35;;;2.03;;
64375;SDS011;50700;55.416;12.952;2023-02-10T13:15:45;12.25;;;3.10;;
64375;SDS011;50700;55.416;12.952;2023-02-10T13:18:20;16.13;;;2.78;;
64375;SDS011;50700;55.416;12.952;2023-02-10T13:28:56;15.80;;;2.30;;
64375;SDS011;50700;55.416;12.952;2023-02-10T13:34:27;13.68;;;2.45;;
64375;SDS011;50700;55.416;12.952;2023-02-10T13:36:57;9.23;;;2.95;;
64375;SDS011;50700;55.416;12.952;2023-02-10T13:39:26;12.83;;;2.87;;
64375;SDS011;50700;55.416;12.952;2023-02-10T13:44:40;13.48;;;2.55;;
64375;SDS011;50700;55.416;12.952;2023-02-10T13:49:33;13.27;;;2.83;;
64375;SDS011;50700;55.416;12.952;2023-02-10T13:52:02;7.03;;;1.90;;
64375;SDS011;50700;55.416;12.952;2023-02-10T13:54:32;13.68;;;1.95;;
64375;SDS011;50700;55.416;12.952;2023-02-10T13:57:01;15.07;;;2.45;;
64375;SDS011;50700;55.416;12.952;2023-02-10T13:59:35;18.60;;;2.75;;
64375;SDS011;50700;55.416;12.952;2023-02-10T14:02:09;10.48;;;2.78;;
64375;SDS011;50700;55.416;12.952;2023-02-10T14:04:39;6.45;;;2.03;;
64375;SDS011;50700;55.416;12.952;2023-02-10T14:07:16;15.43;;;2.35;;
64375;SDS011;50700;55.416;12.952;2023-02-10T14:09:43;8.65;;;2.00;;
64375;SDS011;50700;55.416;12.952;2023-02-10T14:12:23;16.48;;;2.45;;
64375;SDS011;50700;55.416;12.952;2023-02-10T14:14:50;14.70;;;2.35;;
64375;SDS011;50700;55.416;12.952;2023-02-10T14:17:26;12.48;;;2.25;;
64375;SDS011;50700;55.416;12.952;2023-02-10T14:19:58;9.48;;;2.50;;
64375;SDS011;50700;55.416;12.952;2023-02-10T14:22:30;9.73;;;2.33;;
64375;SDS011;50700;55.416;12.952;2023-02-10T14:24:59;11.85;;;2.40;;
64375;SDS011;50700;55.416;12.952;2023-02-10T14:27:26;14.85;;;2.85;;
64375;SDS011;50700;55.416;12.952;2023-02-10T14:29:58;11.23;;;2.30;;
64375;SDS011;50700;55.416;12.952;2023-02-10T14:34:59;9.30;;;1.95;;
64375;SDS011;50700;55.416;12.952;2023-02-10T14:37:26;16.50;;;2.90;;
64375;SDS011;50700;55.416;12.952;2023-02-10T14:39:56;18.20;;;3.67;;
64375;SDS011;50700;55.416;12.952;2023-02-10T14:42:24;12.20;;;3.08;;
64375;SDS011;50700;55.416;12.952;2023-02-10T14:44:52;13.13;;;3.22;;
64375;SDS011;50700;55.416;12.952;2023-02-10T14:47:23;18.27;;;3.20;;
64375;SDS011;50700;55.416;12.952;2023-02-10T14:49:53;22.70;;;4.28;;
64375;SDS011;50700;55.416;12.952;2023-02-10T14:52:24;15.63;;;3.22;;
64375;SDS011;50700;55.416;12.952;2023-02-10T14:54:51;11.57;;;2.88;;
64375;SDS011;50700;55.416;12.952;2023-02-10T14:57:19;14.27;;;3.03;;
64375;SDS011;50700;55.416;12.952;2023-02-10T14:59:52;15.80;;;2.88;;
64375;SDS011;50700;55.416;12.952;2023-02-10T15:02:20;12.52;;;3.25;;
64375;SDS011;50700;55.416;12.952;2023-02-10T15:04:49;18.80;;;2.92;;
64375;SDS011;50700;55.416;12.952;2023-02-10T15:07:22;11.90;;;2.88;;
64375;SDS011;50700;55.416;12.952;2023-02-10T15:09:50;12.48;;;2.75;;
64375;SDS011;50700;55.416;12.952;2023-02-10T15:12:16;16.02;;;2.47;;
64375;SDS011;50700;55.416;12.952;2023-02-10T15:17:20;12.57;;;3.20;;
64375;SDS011;50700;55.416;12.952;2023-02-10T15:22:33;16.27;;;3.20;;
64375;SDS011;50700;55.416;12.952;2023-02-10T15:26:00;11.10;;;3.67;;
64375;SDS011;50700;55.416;12.952;2023-02-10T15:38:51;12.75;;;3.40;;
64375;SDS011;50700;55.416;12.952;2023-02-10T15:46:48;18.98;;;4.05;;
64375;SDS011;50700;55.416;12.952;2023-02-10T15:49:15;14.95;;;4.03;;
64375;SDS011;50700;55.416;12.952;2023-02-10T15:51:47;19.25;;;3.65;;
64375;SDS011;50700;55.416;12.952;2023-02-10T15:54:17;18.15;;;4.90;;
64375;SDS011;50700;55.416;12.952;2023-02-10T15:57:03;15.32;;;4.88;;
64375;SDS011;50700;55.416;12.952;2023-02-10T15:59:30;23.40;;;4.47;;
64375;SDS011;50700;55.416;12.952;2023-02-10T16:04:23;23.45;;;4.60;;
64375;SDS011;50700;55.416;12.952;2023-02-10T16:06:49;18.55;;;4.10;;
64375;SDS011;50700;55.416;12.952;2023-02-10T16:09:15;14.07;;;4.10;;
64375;SDS011;50700;55.416;12.952;2023-02-10T16:11:41;15.70;;;4.07;;
64375;SDS011;50700;55.416;12.952;2023-02-10T16:14:08;16.23;;;4.82;;
64375;SDS011;50700;55.416;12.952;2023-02-10T16:16:34;18.20;;;4.47;;
64375;SDS011;50700;55.416;12.952;2023-02-10T16:19:02;17.77;;;6.68;;
64375;SDS011;50700;55.416;12.952;2023-02-10T16:21:28;22.85;;;4.97;;
64375;SDS011;50700;55.416;12.952;2023-02-10T16:23:54;19.25;;;5.10;;
64375;SDS011;50700;55.416;12.952;2023-02-10T16:26:21;13.35;;;5.25;;
64375;SDS011;50700;55.416;12.952;2023-02-10T16:28:49;15.90;;;5.00;;
64375;SDS011;50700;55.416;12.952;2023-02-10T16:31:16;17.00;;;4.13;;
64375;SDS011;50700;55.416;12.952;2023-02-10T16:33:44;21.05;;;4.75;;
64375;SDS011;50700;55.416;12.952;2023-02-10T16:36:15;18.10;;;4.88;;
64375;SDS011;50700;55.416;12.952;2023-02-10T16:38:42;15.63;;;4.88;;
64375;SDS011;50700;55.416;12.952;2023-02-10T16:41:09;14.50;;;4.68;;
64375;SDS011;50700;55.416;12.952;2023-02-10T16:43:35;15.43;;;4.68;;
64375;SDS011;50700;55.416;12.952;2023-02-10T16:46:01;19.80;;;4.60;;
64375;SDS011;50700;55.416;12.952;2023-02-10T16:48:28;21.83;;;4.95;;
64375;SDS011;50700;55.416;12.952;2023-02-10T16:50:54;12.60;;;3.75;;
64375;SDS011;50700;55.416;12.952;2023-02-10T16:53:20;19.73;;;4.97;;